createdAt,value
2023-10-03T00:01:42.355Z,25.25
2023-10-03T00:04:10.968Z,23.00
2023-10-03T00:06:40.209Z,25.00
2023-10-03T00:09:10.271Z,28.00
2023-10-03T00:11:38.848Z,29.33
2023-10-03T00:14:08.924Z,26.00
2023-10-03T00:16:37.295Z,26.00
2023-10-03T00:19:06.658Z,28.50
2023-10-03T00:21:37.873Z,28.00
2023-10-03T00:24:08.661Z,28.50
2023-10-03T00:26:37.300Z,28.75
2023-10-03T00:29:11.051Z,29.00
2023-10-03T00:31:40.349Z,26.00
2023-10-03T00:34:09.325Z,27.00
2023-10-03T00:36:38.123Z,28.00
2023-10-03T00:39:07.790Z,25.00
2023-10-03T00:41:36.635Z,27.33
2023-10-03T00:44:05.826Z,28.00
2023-10-03T00:46:34.630Z,27.00
2023-10-03T00:49:16.117Z,28.00
2023-10-03T00:51:47.094Z,27.50
2023-10-03T00:54:16.666Z,28.00
2023-10-03T00:56:46.614Z,27.33
2023-10-03T00:59:15.500Z,29.50
2023-10-03T01:01:48.107Z,28.00
2023-10-03T01:04:21.751Z,29.00
2023-10-03T01:06:50.856Z,28.25
2023-10-03T01:09:26.594Z,29.50
2023-10-03T01:11:57.903Z,30.00
2023-10-03T01:14:28.845Z,30.50
2023-10-03T01:16:57.687Z,29.00
2023-10-03T01:19:31.489Z,30.00
2023-10-03T01:22:00.961Z,30.00
2023-10-03T01:24:30.986Z,27.00
2023-10-03T01:26:59.492Z,28.00
2023-10-03T01:29:28.327Z,30.00
2023-10-03T01:31:56.585Z,29.50
2023-10-03T01:34:25.191Z,30.00
2023-10-03T01:36:54.698Z,28.75
2023-10-03T01:39:25.201Z,29.67
2023-10-03T01:41:53.824Z,28.00
2023-10-03T01:44:22.607Z,30.67
2023-10-03T01:46:51.420Z,29.00
2023-10-03T01:49:20.458Z,29.25
2023-10-03T01:51:48.724Z,29.25
2023-10-03T01:54:17.307Z,30.00
2023-10-03T01:56:45.860Z,30.00
2023-10-03T01:59:14.528Z,29.25
2023-10-03T02:01:43.609Z,27.50
2023-10-03T02:04:12.883Z,32.00
2023-10-03T02:06:41.356Z,30.00
2023-10-03T02:09:10.654Z,31.00
2023-10-03T02:11:39.331Z,30.50
2023-10-03T02:14:09.884Z,29.25
2023-10-03T02:16:45.207Z,27.50
2023-10-03T02:19:14.012Z,29.00
2023-10-03T02:21:43.982Z,29.00
2023-10-03T02:24:14.522Z,28.25
2023-10-03T02:26:43.913Z,29.00
2023-10-03T02:29:14.577Z,28.33
2023-10-03T02:31:44.593Z,28.25
2023-10-03T02:34:13.717Z,26.00
2023-10-03T02:36:42.002Z,26.50
2023-10-03T02:39:10.686Z,25.00
2023-10-03T02:41:43.268Z,26.00
2023-10-03T02:44:16.933Z,27.00
2023-10-03T02:46:46.064Z,30.00
2023-10-03T02:49:15.933Z,29.00
2023-10-03T02:51:45.264Z,24.50
2023-10-03T02:54:13.752Z,26.50
2023-10-03T02:56:43.998Z,29.00
2023-10-03T02:59:12.761Z,27.00
2023-10-03T03:01:42.024Z,28.25
2023-10-03T03:04:13.994Z,29.25
2023-10-03T03:06:43.939Z,27.50
2023-10-03T03:09:19.250Z,28.00
2023-10-03T03:11:50.077Z,29.25
2023-10-03T03:14:20.116Z,28.00
2023-10-03T03:16:49.259Z,27.67
2023-10-03T03:19:18.715Z,30.00
2023-10-03T03:21:46.902Z,29.50
2023-10-03T03:24:16.872Z,30.00
2023-10-03T03:26:49.182Z,27.00
2023-10-03T03:29:22.540Z,27.25
2023-10-03T03:31:53.473Z,28.50
2023-10-03T03:34:25.244Z,28.00
2023-10-03T03:36:57.380Z,30.00
2023-10-03T03:39:28.674Z,29.50
2023-10-03T03:41:57.697Z,28.00
2023-10-03T03:44:27.261Z,29.00
2023-10-03T03:46:55.910Z,28.00
2023-10-03T03:49:26.614Z,28.75
2023-10-03T03:51:55.033Z,29.50
2023-10-03T03:54:23.571Z,30.00
2023-10-03T03:56:52.369Z,31.00
2023-10-03T03:59:21.265Z,29.00
2023-10-03T04:01:51.654Z,29.00
2023-10-03T04:04:21.366Z,29.00
2023-10-03T04:06:49.634Z,30.00
2023-10-03T04:09:19.256Z,29.00
2023-10-03T04:11:48.776Z,28.75
2023-10-03T04:14:17.373Z,29.00
2023-10-03T04:16:46.165Z,28.50
2023-10-03T04:19:14.794Z,30.50
2023-10-03T04:21:43.607Z,30.00
2023-10-03T04:24:16.147Z,30.33
2023-10-03T04:26:45.159Z,30.00
2023-10-03T04:29:16.433Z,31.00
2023-10-03T04:31:45.937Z,29.00
2023-10-03T04:34:18.651Z,30.50
2023-10-03T04:36:48.781Z,30.25
2023-10-03T04:39:21.409Z,30.25
2023-10-03T04:41:49.864Z,31.00
2023-10-03T04:44:19.202Z,31.00
2023-10-03T04:46:47.802Z,29.50
2023-10-03T04:49:17.578Z,30.75
2023-10-03T04:51:48.827Z,34.00
2023-10-03T04:54:18.571Z,30.00
2023-10-03T04:56:47.222Z,32.25
2023-10-03T04:59:16.205Z,31.25
2023-10-03T05:01:44.738Z,30.25
2023-10-03T05:04:16.423Z,33.00
2023-10-03T05:06:44.932Z,29.25
2023-10-03T05:09:13.885Z,31.00
2023-10-03T05:11:43.605Z,29.00
2023-10-03T05:14:13.591Z,30.33
2023-10-03T05:16:42.325Z,31.00
2023-10-03T05:19:11.073Z,29.67
2023-10-03T05:21:39.778Z,29.00
2023-10-03T05:24:12.330Z,34.25
2023-10-03T05:26:40.726Z,31.25
2023-10-03T05:29:09.425Z,30.00
2023-10-03T05:31:42.306Z,31.00
2023-10-03T05:34:11.543Z,31.00
2023-10-03T05:36:40.189Z,32.67
2023-10-03T05:39:13.272Z,31.00
2023-10-03T05:41:42.595Z,33.33
2023-10-03T05:44:13.160Z,30.00
2023-10-03T05:46:43.706Z,32.25
2023-10-03T05:49:13.188Z,32.00
2023-10-03T05:51:41.431Z,30.00
2023-10-03T05:54:10.027Z,31.00
2023-10-03T05:56:38.762Z,29.50
2023-10-03T05:59:08.436Z,29.00
2023-10-03T06:01:36.818Z,28.00
2023-10-03T06:04:06.140Z,28.00
2023-10-03T06:06:34.598Z,29.00
2023-10-03T06:09:04.390Z,27.00
2023-10-03T06:11:33.138Z,28.25
2023-10-03T06:14:01.781Z,28.00
2023-10-03T06:16:30.054Z,28.00
2023-10-03T06:18:59.240Z,26.00
2023-10-03T06:21:27.649Z,27.00
2023-10-03T06:23:56.420Z,25.00
2023-10-03T06:26:24.773Z,26.33
2023-10-03T06:28:53.447Z,26.25
2023-10-03T06:31:22.956Z,26.33
2023-10-03T06:33:52.707Z,28.00
2023-10-03T06:36:21.016Z,30.00
2023-10-03T06:38:50.555Z,29.33
2023-10-03T06:41:20.762Z,27.00
2023-10-03T06:43:50.557Z,30.25
2023-10-03T06:46:19.083Z,30.00
2023-10-03T06:48:48.228Z,30.25
2023-10-03T06:51:18.345Z,28.00
2023-10-03T06:53:48.737Z,29.00
2023-10-03T06:56:17.300Z,27.50
2023-10-03T06:58:45.893Z,29.00
2023-10-03T07:01:14.402Z,29.25
2023-10-03T07:03:43.221Z,29.00
2023-10-03T07:06:12.190Z,30.00
2023-10-03T07:08:42.941Z,29.25
2023-10-03T07:11:17.865Z,30.00
2023-10-03T07:13:46.839Z,29.00
2023-10-03T07:16:15.144Z,29.75
2023-10-03T07:18:46.776Z,30.25
2023-10-03T07:21:18.049Z,31.50
2023-10-03T07:23:47.070Z,29.00
2023-10-03T07:26:15.369Z,31.00
2023-10-03T07:28:44.154Z,28.50
2023-10-03T07:31:16.332Z,30.00
2023-10-03T07:33:46.068Z,30.25
2023-10-03T07:36:15.819Z,30.33
2023-10-03T07:38:44.523Z,31.00
2023-10-03T07:41:17.261Z,30.33
2023-10-03T07:43:49.164Z,30.00
2023-10-03T07:46:22.348Z,29.00
2023-10-03T07:48:54.348Z,31.00
2023-10-03T07:51:28.289Z,32.00
2023-10-03T07:53:57.809Z,30.00
2023-10-03T07:56:35.099Z,32.25
2023-10-03T07:59:05.328Z,32.00
2023-10-03T08:04:14.266Z,33.00
2023-10-03T08:06:43.337Z,35.00
2023-10-03T08:09:15.647Z,35.25
2023-10-03T08:11:48.113Z,32.67
2023-10-03T08:14:19.415Z,33.00
2023-10-03T08:16:48.811Z,35.00
2023-10-03T08:19:26.906Z,35.25
2023-10-03T08:21:56.999Z,36.00
2023-10-03T08:24:26.911Z,36.00
2023-10-03T08:27:00.517Z,35.00
2023-10-03T08:29:30.064Z,35.00
2023-10-03T08:31:59.537Z,34.00
2023-10-03T08:34:29.762Z,33.75
2023-10-03T08:37:01.859Z,32.00
2023-10-03T08:39:34.507Z,34.00
2023-10-03T08:42:15.470Z,34.25
2023-10-03T08:44:55.634Z,33.00
2023-10-03T08:47:31.034Z,30.50
2023-10-03T08:50:13.209Z,31.75
2023-10-03T08:52:51.448Z,32.50
2023-10-03T08:55:21.407Z,32.00
2023-10-03T08:57:51.231Z,35.00
2023-10-03T09:00:27.087Z,33.50
2023-10-03T09:03:11.299Z,32.00
2023-10-03T09:05:41.885Z,31.00
2023-10-03T09:08:14.911Z,31.00
2023-10-03T09:10:53.498Z,33.00
2023-10-03T09:13:29.461Z,33.25
2023-10-03T09:16:10.107Z,34.00
2023-10-03T09:18:45.206Z,34.75
2023-10-03T09:21:26.456Z,37.50
2023-10-03T09:24:03.832Z,35.00
2023-10-03T09:26:49.465Z,35.00
2023-10-03T09:29:32.585Z,34.25
2023-10-03T09:32:14.643Z,36.00
2023-10-03T09:34:48.199Z,38.00
2023-10-03T09:37:18.902Z,34.33
2023-10-03T09:39:51.077Z,37.00
2023-10-03T09:42:25.534Z,34.00
2023-10-03T09:45:00.371Z,34.25
2023-10-03T09:47:35.426Z,37.25
2023-10-03T09:50:09.760Z,37.00
2023-10-03T09:52:39.626Z,39.75
2023-10-03T09:55:28.001Z,39.33
2023-10-03T09:58:01.242Z,38.25
2023-10-03T10:00:41.353Z,37.00
2023-10-03T10:03:21.389Z,38.25
2023-10-03T10:06:14.807Z,40.00
2023-10-03T10:08:56.348Z,40.50
2023-10-03T10:11:27.691Z,40.00
2023-10-03T10:14:11.911Z,43.00
2023-10-03T10:17:05.309Z,41.00
2023-10-03T10:20:09.979Z,38.50
2023-10-03T10:23:04.350Z,39.25
2023-10-03T10:25:53.546Z,45.00
2023-10-03T10:28:27.298Z,42.00
2023-10-03T10:31:30.946Z,44.00
2023-10-03T10:34:21.621Z,42.00
2023-10-03T10:37:16.609Z,42.33
2023-10-03T10:40:13.301Z,43.50
2023-10-03T10:43:01.712Z,44.25
2023-10-03T10:45:41.122Z,45.25
2023-10-03T10:48:13.084Z,40.00
2023-10-03T10:51:14.434Z,45.50
2023-10-03T10:53:48.793Z,44.25
2023-10-03T10:56:17.357Z,43.50
2023-10-03T10:58:48.993Z,44.25
2023-10-03T11:01:18.374Z,43.00
2023-10-03T11:03:47.898Z,43.50
2023-10-03T11:06:18.147Z,41.00
2023-10-03T11:09:14.707Z,43.25
2023-10-03T11:11:43.353Z,41.75
2023-10-03T11:14:12.265Z,46.00
2023-10-03T11:16:40.650Z,49.50
2023-10-03T11:19:10.348Z,44.75
2023-10-03T11:21:38.782Z,46.33
2023-10-03T11:24:14.836Z,44.00
2023-10-03T11:26:47.286Z,45.50
2023-10-03T11:29:19.352Z,45.25
2023-10-03T11:31:47.729Z,43.33
2023-10-03T11:34:30.163Z,42.50
2023-10-03T11:36:59.893Z,41.50
2023-10-03T11:39:30.105Z,41.25
2023-10-03T11:41:58.429Z,44.00
2023-10-03T11:44:28.931Z,40.00
2023-10-03T11:46:57.254Z,41.00
2023-10-03T11:49:28.823Z,40.25
2023-10-03T11:51:58.053Z,41.75
2023-10-03T11:54:26.739Z,42.50
2023-10-03T11:56:55.373Z,45.00
2023-10-03T11:59:23.951Z,40.50
2023-10-03T12:01:58.530Z,40.00
2023-10-03T12:04:27.708Z,40.50
2023-10-03T12:06:56.081Z,42.00
2023-10-03T12:09:25.026Z,38.00
2023-10-03T12:11:53.498Z,38.67
2023-10-03T12:14:22.200Z,37.25
2023-10-03T12:16:53.275Z,37.00
2023-10-03T12:19:22.085Z,36.00
2023-10-03T12:21:50.572Z,36.00
2023-10-03T12:24:19.601Z,38.00
2023-10-03T12:26:48.726Z,34.50
2023-10-03T12:29:17.608Z,36.00
2023-10-03T12:31:46.915Z,35.00
2023-10-03T12:34:15.532Z,36.25
2023-10-03T12:36:43.742Z,33.50
2023-10-03T12:39:12.974Z,33.25
2023-10-03T12:41:41.799Z,37.50
2023-10-03T12:44:10.663Z,35.00
2023-10-03T12:46:38.900Z,35.33
2023-10-03T12:49:09.415Z,35.50
2023-10-03T12:51:37.688Z,34.00
2023-10-03T12:54:07.586Z,34.25
2023-10-03T12:56:37.167Z,30.33
2023-10-03T12:59:05.899Z,34.25
2023-10-03T13:01:34.656Z,35.00
2023-10-03T13:04:04.225Z,33.25
2023-10-03T13:06:32.551Z,35.00
2023-10-03T13:09:02.174Z,34.50
2023-10-03T13:11:30.599Z,34.00
2023-10-03T13:14:00.926Z,34.00
2023-10-03T13:16:29.352Z,34.25
2023-10-03T13:18:57.932Z,31.00
2023-10-03T13:21:26.419Z,31.00
2023-10-03T13:23:55.788Z,36.25
2023-10-03T13:26:24.007Z,33.25
2023-10-03T13:28:53.759Z,32.75
2023-10-03T13:31:22.067Z,35.75
2023-10-03T13:33:51.304Z,34.25
2023-10-03T13:36:21.857Z,35.25
2023-10-03T13:38:51.974Z,33.50
2023-10-03T13:41:20.403Z,33.25
2023-10-03T13:43:49.670Z,35.75
2023-10-03T13:46:18.352Z,35.50
2023-10-03T13:48:49.269Z,35.33
2023-10-03T13:51:17.994Z,41.00
2023-10-03T13:53:47.050Z,37.00
2023-10-03T13:56:15.291Z,37.00
2023-10-03T13:58:43.953Z,40.00
2023-10-03T14:01:14.070Z,39.00
2023-10-03T14:03:44.778Z,38.75
2023-10-03T14:06:16.732Z,36.50
2023-10-03T14:08:45.456Z,39.75
2023-10-03T14:11:25.434Z,43.00
2023-10-03T14:13:56.526Z,39.50
2023-10-03T14:16:25.625Z,39.25
2023-10-03T14:18:56.736Z,39.00
2023-10-03T14:21:39.764Z,39.00
2023-10-03T14:24:13.041Z,42.00
2023-10-03T14:26:41.425Z,41.50
2023-10-03T14:29:10.048Z,42.50
2023-10-03T14:31:38.286Z,42.00
2023-10-03T14:34:07.432Z,42.33
2023-10-03T14:36:35.747Z,39.50
2023-10-03T14:39:05.894Z,40.50
2023-10-03T14:41:34.709Z,41.33
2023-10-03T14:44:05.225Z,41.50
2023-10-03T14:46:35.481Z,43.00
2023-10-03T14:49:06.186Z,43.25
2023-10-03T14:51:35.030Z,46.00
2023-10-03T14:54:03.941Z,43.00
2023-10-03T14:56:33.849Z,41.50
2023-10-03T14:59:09.103Z,40.25
2023-10-03T15:01:37.748Z,41.00
2023-10-03T15:04:06.830Z,37.00
2023-10-03T15:06:35.329Z,38.25
2023-10-03T15:29:20.889Z,39.50
2023-10-03T15:31:49.208Z,38.25
2023-10-03T15:34:29.759Z,40.00
2023-10-03T15:36:59.412Z,40.00
2023-10-03T15:39:28.406Z,39.75
2023-10-03T15:41:59.283Z,37.00
2023-10-03T15:44:27.806Z,37.00
2023-10-03T15:46:56.141Z,39.25
2023-10-03T15:49:25.644Z,35.00
2023-10-03T15:51:56.016Z,37.25
2023-10-03T15:54:24.638Z,39.33
2023-10-03T15:56:52.944Z,39.25
2023-10-03T15:59:23.089Z,37.25
2023-10-03T16:01:51.545Z,37.50
2023-10-03T16:04:20.617Z,38.50
2023-10-03T16:06:49.029Z,39.50
2023-10-03T16:09:20.536Z,37.33
2023-10-03T16:11:50.086Z,36.50
2023-10-03T16:14:18.678Z,39.75
2023-10-03T16:16:47.023Z,39.00
2023-10-03T16:19:18.289Z,32.50
2023-10-03T16:21:46.558Z,39.00
2023-10-03T16:24:15.139Z,39.00
2023-10-03T16:26:44.448Z,38.25
2023-10-03T16:29:13.147Z,39.25
2023-10-03T16:31:41.495Z,37.00
2023-10-03T16:34:10.094Z,37.00
2023-10-03T16:36:39.943Z,37.50
2023-10-03T16:39:13.447Z,39.00
2023-10-03T16:41:42.011Z,38.50
2023-10-03T16:44:11.038Z,37.00
2023-10-03T16:46:39.481Z,37.75
2023-10-03T16:49:08.653Z,38.75
2023-10-03T16:51:36.812Z,36.25
2023-10-03T16:54:06.471Z,35.50
2023-10-03T16:56:36.542Z,36.67
2023-10-03T16:59:05.852Z,37.50
2023-10-03T17:01:34.221Z,36.00
2023-10-03T17:04:03.018Z,36.00
2023-10-03T17:06:31.803Z,33.00
2023-10-03T17:09:00.472Z,34.33
2023-10-03T17:11:30.581Z,31.00
2023-10-03T17:14:00.852Z,32.50
2023-10-03T17:16:29.075Z,34.75
2023-10-03T17:18:58.138Z,30.50
2023-10-03T17:21:26.542Z,31.25
2023-10-03T17:23:55.522Z,33.00
2023-10-03T17:26:24.452Z,33.00
2023-10-03T17:28:53.609Z,33.00
2023-10-03T17:31:25.471Z,31.25
2023-10-03T17:33:54.445Z,33.67
2023-10-03T17:36:23.722Z,30.00
2023-10-03T17:38:52.559Z,31.00
2023-10-03T17:41:22.288Z,31.00
2023-10-03T17:43:50.934Z,32.33
2023-10-03T17:46:19.526Z,32.00
2023-10-03T17:48:48.914Z,33.50
2023-10-03T17:51:17.420Z,34.50
2023-10-03T17:53:46.125Z,33.75
2023-10-03T17:56:14.576Z,35.00
2023-10-03T17:58:44.863Z,33.50
2023-10-03T18:01:27.093Z,34.25
2023-10-03T18:03:56.263Z,31.00
2023-10-03T18:06:25.111Z,31.00
2023-10-03T18:08:54.503Z,32.25
2023-10-03T18:11:22.887Z,31.00
2023-10-03T18:13:51.850Z,32.00
2023-10-03T18:16:22.143Z,31.00
2023-10-03T18:18:51.641Z,32.00
2023-10-03T18:21:21.094Z,30.25
2023-10-03T18:23:51.217Z,33.00
2023-10-03T18:26:20.406Z,32.00
2023-10-03T18:28:49.247Z,34.25
2023-10-03T18:31:20.926Z,31.50
2023-10-03T18:33:49.737Z,32.00
2023-10-03T18:36:19.239Z,30.25
2023-10-03T18:38:48.553Z,31.33
2023-10-03T18:41:16.981Z,32.00
2023-10-03T18:43:47.182Z,31.25
2023-10-03T18:46:16.117Z,31.33
2023-10-03T18:48:45.209Z,33.00
2023-10-03T18:51:13.608Z,32.33
2023-10-03T18:53:44.339Z,31.00
2023-10-03T18:56:12.774Z,32.00
2023-10-03T18:58:41.679Z,27.00
2023-10-03T19:01:23.578Z,29.00
2023-10-03T19:03:57.067Z,28.25
2023-10-03T19:06:26.496Z,30.25
2023-10-03T19:08:56.021Z,28.75
2023-10-03T19:11:24.503Z,28.00
2023-10-03T19:13:56.937Z,29.00
2023-10-03T19:16:26.946Z,30.25
2023-10-03T19:18:55.672Z,28.50
2023-10-03T19:21:24.126Z,29.00
2023-10-03T19:23:55.669Z,29.33
2023-10-03T19:26:24.230Z,28.50
2023-10-03T19:28:52.789Z,29.00
2023-10-03T19:31:21.145Z,28.25
2023-10-03T19:33:49.828Z,28.50
2023-10-03T19:36:21.324Z,28.00
2023-10-03T19:38:50.466Z,29.00
2023-10-03T19:41:19.251Z,28.00
2023-10-03T19:43:49.912Z,30.00
2023-10-03T19:46:22.723Z,28.00
2023-10-03T19:48:51.523Z,27.00
2023-10-03T19:51:21.761Z,26.25
2023-10-03T19:53:53.206Z,28.50
2023-10-03T19:56:25.399Z,30.00
2023-10-03T19:58:56.306Z,27.50
2023-10-03T20:01:25.845Z,29.25
2023-10-03T20:03:54.658Z,29.00
2023-10-03T20:06:24.858Z,30.00
2023-10-03T20:08:57.344Z,29.25
2023-10-03T20:11:26.330Z,30.33
2023-10-03T20:13:55.008Z,31.00
2023-10-03T20:16:25.470Z,32.00
2023-10-03T20:18:54.211Z,35.00
2023-10-03T20:21:22.946Z,38.25
2023-10-03T20:23:51.719Z,36.00
2023-10-03T20:26:20.037Z,38.25
2023-10-03T20:28:48.683Z,41.00
2023-10-03T20:31:17.612Z,40.25
2023-10-03T20:33:46.726Z,40.00
2023-10-03T20:36:15.930Z,38.67
2023-10-03T20:38:44.576Z,36.00
2023-10-03T20:41:16.973Z,39.75
2023-10-03T20:43:45.525Z,35.00
2023-10-03T20:46:15.590Z,38.25
2023-10-03T20:48:44.733Z,40.00
2023-10-03T20:51:20.709Z,40.25
2023-10-03T20:53:49.709Z,40.50
2023-10-03T20:56:18.008Z,37.25
2023-10-03T20:58:47.526Z,36.25
2023-10-03T21:01:16.540Z,38.50
2023-10-03T21:03:45.950Z,41.50
2023-10-03T21:06:15.605Z,41.75
2023-10-03T21:08:44.747Z,40.25
2023-10-03T21:11:17.660Z,45.75
2023-10-03T21:13:48.495Z,43.00
2023-10-03T21:16:16.854Z,43.67
2023-10-03T21:18:45.511Z,44.00
2023-10-03T21:21:14.898Z,43.00
2023-10-03T21:23:43.821Z,39.00
2023-10-03T21:26:12.365Z,42.00
2023-10-03T21:28:43.324Z,38.33
2023-10-03T21:31:11.691Z,40.75
2023-10-03T21:33:40.269Z,42.50
2023-10-03T21:36:08.684Z,40.25
2023-10-03T21:38:37.370Z,37.50
2023-10-03T21:41:08.787Z,41.33
2023-10-03T21:43:37.360Z,42.00
2023-10-03T21:46:06.757Z,42.50
2023-10-03T21:48:35.869Z,43.00
2023-10-03T21:51:10.615Z,47.00
2023-10-03T21:53:40.334Z,43.00
2023-10-03T21:56:12.243Z,43.50
2023-10-03T21:58:41.030Z,45.00
2023-10-03T22:01:12.420Z,44.00
2023-10-03T22:03:41.930Z,46.25
2023-10-03T22:06:12.081Z,47.50
2023-10-03T22:08:40.772Z,47.75
2023-10-03T22:11:10.385Z,48.00
2023-10-03T22:13:39.090Z,48.50
2023-10-03T22:16:07.431Z,46.00
2023-10-03T22:18:41.437Z,49.00
2023-10-03T22:21:12.521Z,48.25
2023-10-03T22:23:41.279Z,47.00
2023-10-03T22:26:10.816Z,47.00
2023-10-03T22:28:40.028Z,50.00
2023-10-03T22:31:08.707Z,47.00
2023-10-03T22:33:38.390Z,48.00
2023-10-03T22:36:07.451Z,45.00
2023-10-03T22:38:36.606Z,45.75
2023-10-03T22:41:12.784Z,44.25
2023-10-03T22:43:41.512Z,45.00
2023-10-03T22:46:11.704Z,43.67
2023-10-03T22:48:43.852Z,45.00
2023-10-03T22:51:12.281Z,45.00
2023-10-03T22:53:41.436Z,45.00
2023-10-03T22:56:11.973Z,42.00
2023-10-03T22:58:40.606Z,44.67
2023-10-03T23:01:09.637Z,44.50
2023-10-03T23:03:38.347Z,44.25
2023-10-03T23:06:06.735Z,45.00
2023-10-03T23:08:35.610Z,46.00
2023-10-03T23:11:05.125Z,43.50
2023-10-03T23:13:36.229Z,46.00
2023-10-03T23:16:08.117Z,45.00
2023-10-03T23:18:37.405Z,46.00
2023-10-03T23:21:06.866Z,43.75
2023-10-03T23:23:35.586Z,48.00
2023-10-03T23:26:05.455Z,49.25
2023-10-03T23:28:34.310Z,46.00
2023-10-03T23:31:02.650Z,48.00
2023-10-03T23:33:31.516Z,47.75
2023-10-03T23:36:01.685Z,48.50
2023-10-03T23:38:37.054Z,45.50
2023-10-03T23:41:05.826Z,50.00
2023-10-03T23:43:34.578Z,45.00
2023-10-03T23:46:09.423Z,47.00
2023-10-03T23:48:38.266Z,47.25
2023-10-03T23:51:09.915Z,48.00
2023-10-03T23:53:38.721Z,46.50
2023-10-03T23:56:13.586Z,50.50
2023-10-03T23:58:45.369Z,49.50
